Rikiei No.8 — JD4201 — position and weather

sailwx.info

Track history (hours):
 
Tides and Currents Weather Stations Pressure Air Temp Water Temp Dewpoint Dewpoint Depression Visibility Wind Speed Wind Dir Waves Ship Positions

Rikiei No.8

Last reported at 2017-Oct-17 11:00 UTC. Time now 2017-Oct-17 11:29 UTC.
Position N 35°13' E 139°46'.

Length 80 m; draft 5.3 m.

Type: Cargo ship. MMSI: 431009718.

Date/timePositionNaut miles runAvg speedWind from/ knotsBaromVisibWave heightAir tempDewpointWater temp
2017-Oct-17 11:00N 35°13' E 139°46'612.6
2017-Oct-17 10:30N 35°19' E 139°43'612.6
2017-Oct-17 10:00N 35°25' E 139°43'5 9.3
2017-Oct-17 09:30N 35°30' E 139°43'0 0.0
2017-Oct-17 09:00N 35°30' E 139°43'0 0.0
2017-Oct-17 08:30N 35°30' E 139°43'0 0.0
2017-Oct-17 08:00N 35°30' E 139°43'0 0.0
2017-Oct-17 07:30N 35°30' E 139°43'0 0.0
2017-Oct-17 07:00N 35°30' E 139°43'0 0.0
2017-Oct-17 06:30N 35°30' E 139°43'0 0.0
2017-Oct-17 06:00N 35°30' E 139°43'0 0.0
2017-Oct-17 05:30N 35°30' E 139°43'0 0.0
2017-Oct-17 05:00N 35°30' E 139°43'0 0.0
2017-Oct-17 04:22N 35°30' E 139°43'0 0.0
2017-Oct-17 04:00N 35°30' E 139°43'2 4.6
2017-Oct-17 03:30N 35°27' E 139°43'1 3.0
2017-Oct-17 03:01N 35°27' E 139°45'2 3.7
2017-Oct-17 02:30N 35°29' E 139°44'0 0.5
2017-Oct-17 02:00N 35°29' E 139°44'0 0.0
2017-Oct-17 01:30N 35°29' E 139°44'0 0.0
2017-Oct-17 01:00N 35°29' E 139°44'0 0.0
2017-Oct-17 00:30N 35°29' E 139°44'0 0.0
2017-Oct-17 00:00N 35°29' E 139°44'0 0.0
2017-Oct-16 23:30N 35°29' E 139°44'0 0.0
2017-Oct-16 16:46N 35°29' E 139°44'0 0.0
2017-Oct-16 16:15N 35°29' E 139°44'0 0.0
2017-Oct-16 16:00N 35°29' E 139°44'3 5.5
2017-Oct-16 15:30N 35°27' E 139°46'3 6.8
2017-Oct-16 15:00N 35°23' E 139°45'0 0.0
2017-Oct-16 14:00N 35°23' E 139°45'0 0.0
2017-Oct-16 13:30N 35°23' E 139°45'0 0.0
2017-Oct-16 13:00N 35°23' E 139°45'0 0.0
2017-Oct-16 12:30N 35°23' E 139°45'0 0.0
2017-Oct-16 12:00N 35°23' E 139°45'0 0.0
2017-Oct-16 11:30N 35°23' E 139°45'0 0.0
2017-Oct-16 11:00N 35°23' E 139°45'0 0.0
2017-Oct-16 10:30N 35°23' E 139°45'0 0.0
2017-Oct-16 10:00N 35°23' E 139°45'0 0.0
2017-Oct-16 09:30N 35°23' E 139°45'0 0.0
2017-Oct-16 09:00N 35°23' E 139°45'0 0.0
2017-Oct-16 08:30N 35°23' E 139°45'0 0.0
2017-Oct-16 08:00N 35°23' E 139°45'0 0.0
2017-Oct-16 07:30N 35°23' E 139°45'0 0.0
2017-Oct-16 07:00N 35°23' E 139°45'0 0.0
2017-Oct-16 06:30N 35°23' E 139°45'0 0.0
2017-Oct-16 06:00N 35°23' E 139°45'0 0.0
2017-Oct-16 05:30N 35°23' E 139°45'0 0.0
2017-Oct-16 05:00N 35°23' E 139°45'0 0.0
2017-Oct-16 04:30N 35°23' E 139°45'0 0.0
2017-Oct-16 04:00N 35°23' E 139°45'0 0.0
2017-Oct-16 03:31N 35°23' E 139°45'0 0.0
2017-Oct-16 03:00N 35°23' E 139°45'0 0.0
2017-Oct-16 02:30N 35°23' E 139°45'0 0.0
2017-Oct-16 02:00N 35°23' E 139°45'0 0.0
2017-Oct-16 01:30N 35°23' E 139°45'2 4.8
2017-Oct-16 01:00N 35°21' E 139°44'510.4
2017-Oct-16 00:30N 35°16' E 139°46'510.2
2017-Oct-16 00:00N 35°11' E 139°46'510.6
2017-Oct-15 23:30N 35°06' E 139°45'510.7
2017-Oct-15 23:00N 35°01' E 139°41'611.4
2017-Oct-15 22:30N 34°59' E 139°35'812.5
2017-Oct-15 21:53N 34°55' E 139°27'  
Track history (hours):
 
Tides and Currents Weather Stations Pressure Air Temp Water Temp Dewpoint Dewpoint Depression Visibility Wind Speed Wind Dir Waves Ship Positions

Rikiei No.8

Last reported at 2017-Oct-17 11:00 UTC. Time now 2017-Oct-17 11:29 UTC.
Position N 35°13' E 139°46'.

Length 80 m; draft 5.3 m.

Type: Cargo ship. MMSI: 431009718.

Date/timePositionNaut miles runAvg speedWind from/ knotsBaromVisibWave heightAir tempDewpointWater temp
2017-Oct-17 11:00N 35°13' E 139°46'612.6
2017-Oct-17 10:30N 35°19' E 139°43'612.6
2017-Oct-17 10:00N 35°25' E 139°43'5 9.3
2017-Oct-17 09:30N 35°30' E 139°43'0 0.0
2017-Oct-17 09:00N 35°30' E 139°43'0 0.0
2017-Oct-17 08:30N 35°30' E 139°43'0 0.0
2017-Oct-17 08:00N 35°30' E 139°43'0 0.0
2017-Oct-17 07:30N 35°30' E 139°43'0 0.0
2017-Oct-17 07:00N 35°30' E 139°43'0 0.0
2017-Oct-17 06:30N 35°30' E 139°43'0 0.0
2017-Oct-17 06:00N 35°30' E 139°43'0 0.0
2017-Oct-17 05:30N 35°30' E 139°43'0 0.0
2017-Oct-17 05:00N 35°30' E 139°43'0 0.0
2017-Oct-17 04:22N 35°30' E 139°43'0 0.0
2017-Oct-17 04:00N 35°30' E 139°43'2 4.6
2017-Oct-17 03:30N 35°27' E 139°43'1 3.0
2017-Oct-17 03:01N 35°27' E 139°45'2 3.7
2017-Oct-17 02:30N 35°29' E 139°44'0 0.5
2017-Oct-17 02:00N 35°29' E 139°44'0 0.0
2017-Oct-17 01:30N 35°29' E 139°44'0 0.0
2017-Oct-17 01:00N 35°29' E 139°44'0 0.0
2017-Oct-17 00:30N 35°29' E 139°44'0 0.0
2017-Oct-17 00:00N 35°29' E 139°44'0 0.0
2017-Oct-16 23:30N 35°29' E 139°44'0 0.0
2017-Oct-16 16:46N 35°29' E 139°44'0 0.0
2017-Oct-16 16:15N 35°29' E 139°44'0 0.0
2017-Oct-16 16:00N 35°29' E 139°44'3 5.5
2017-Oct-16 15:30N 35°27' E 139°46'3 6.8
2017-Oct-16 15:00N 35°23' E 139°45'0 0.0
2017-Oct-16 14:00N 35°23' E 139°45'0 0.0
2017-Oct-16 13:30N 35°23' E 139°45'0 0.0
2017-Oct-16 13:00N 35°23' E 139°45'0 0.0
2017-Oct-16 12:30N 35°23' E 139°45'0 0.0
2017-Oct-16 12:00N 35°23' E 139°45'0 0.0
2017-Oct-16 11:30N 35°23' E 139°45'0 0.0
2017-Oct-16 11:00N 35°23' E 139°45'0 0.0
2017-Oct-16 10:30N 35°23' E 139°45'0 0.0
2017-Oct-16 10:00N 35°23' E 139°45'0 0.0
2017-Oct-16 09:30N 35°23' E 139°45'0 0.0
2017-Oct-16 09:00N 35°23' E 139°45'0 0.0
2017-Oct-16 08:30N 35°23' E 139°45'0 0.0
2017-Oct-16 08:00N 35°23' E 139°45'0 0.0
2017-Oct-16 07:30N 35°23' E 139°45'0 0.0
2017-Oct-16 07:00N 35°23' E 139°45'0 0.0
2017-Oct-16 06:30N 35°23' E 139°45'0 0.0
2017-Oct-16 06:00N 35°23' E 139°45'0 0.0
2017-Oct-16 05:30N 35°23' E 139°45'0 0.0
2017-Oct-16 05:00N 35°23' E 139°45'0 0.0
2017-Oct-16 04:30N 35°23' E 139°45'0 0.0
2017-Oct-16 04:00N 35°23' E 139°45'0 0.0
2017-Oct-16 03:31N 35°23' E 139°45'0 0.0
2017-Oct-16 03:00N 35°23' E 139°45'0 0.0
2017-Oct-16 02:30N 35°23' E 139°45'0 0.0
2017-Oct-16 02:00N 35°23' E 139°45'0 0.0
2017-Oct-16 01:30N 35°23' E 139°45'2 4.8
2017-Oct-16 01:00N 35°21' E 139°44'510.4
2017-Oct-16 00:30N 35°16' E 139°46'510.2
2017-Oct-16 00:00N 35°11' E 139°46'510.6
2017-Oct-15 23:30N 35°06' E 139°45'510.7
2017-Oct-15 23:00N 35°01' E 139°41'611.4
2017-Oct-15 22:30N 34°59' E 139°35'812.5
2017-Oct-15 21:53N 34°55' E 139°27'  

Dump ship's entire track history